Time;durP1;ratioP1;P1;durP2;ratioP2;P2;SDS_P1;SDS_P2;PMS_P1;PMS_P2;Temp;Humidity;BMP_temperature;BMP_pressure;BME280_temperature;BME280_humidity;BME280_pressure;Samples;Min_cycle;Max_cycle;Signal;HPM_P1;HPM_P2
2023/05/02 00:03:16;;;;;;;8.67;7.97;;;;;;;12.96;100.00;148339.75;5090249;28;20718;-53
2023/05/02 00:06:23;;;;;;;10.57;8.60;;;;;;;13.04;100.00;148358.63;5088504;28;20199;-53
2023/05/02 00:09:47;;;;;;;9.13;8.43;;;;;;;13.05;100.00;148362.41;5090456;28;20199;-53
2023/05/02 00:12:39;;;;;;;9.17;8.27;;;;;;;13.06;100.00;148363.66;5087316;28;20591;-53
2023/05/02 00:15:24;;;;;;;9.27;8.47;;;;;;;13.14;100.00;148382.53;5089132;28;20199;-48
2023/05/02 00:18:06;;;;;;;8.80;8.00;;;;;;;13.16;100.00;148387.63;5089914;28;20258;-48
2023/05/02 00:27:06;;;;;;;8.90;8.20;;;;;;;13.14;100.00;148382.53;5089244;28;20187;-53
2023/05/02 00:30:02;;;;;;;7.80;7.00;;;;;;;13.05;100.00;148361.16;5090063;28;20292;-51
2023/05/02 00:33:11;;;;;;;8.50;7.90;;;;;;;12.98;100.00;148343.53;5088221;28;20344;-49
2023/05/02 00:35:58;;;;;;;8.87;7.47;;;;;;;12.88;100.00;148319.53;5087591;28;20323;-53
2023/05/02 00:38:48;;;;;;;10.20;7.23;;;;;;;12.84;100.00;148309.50;5089317;28;20663;-53
2023/05/02 00:41:27;;;;;;;8.27;7.67;;;;;;;12.83;100.00;148306.97;5086131;28;20196;-46
2023/05/02 00:44:03;;;;;;;8.77;7.97;;;;;;;12.85;100.00;148312.03;5089866;28;20230;-47
2023/05/02 00:50:33;;;;;;;8.43;7.70;;;;;;;12.72;100.00;148279.28;5088559;28;20199;-53
2023/05/02 00:56:30;;;;;;;7.83;7.23;;;;;;;12.77;100.00;148291.84;5088422;28;20206;-52
2023/05/02 00:59:21;;;;;;;7.90;7.30;;;;;;;12.75;100.00;148286.84;5086657;28;20618;-47
2023/05/02 01:06:05;;;;;;;6.93;6.50;;;;;;;12.70;100.00;148274.22;5085665;28;20705;-53
2023/05/02 01:09:04;;;;;;;8.20;7.50;;;;;;;12.67;100.00;148266.66;5089499;28;20282;-52
2023/05/02 01:15:17;;;;;;;8.03;7.23;;;;;;;12.56;100.00;148238.94;5089507;28;20209;-47
2023/05/02 01:18:19;;;;;;;7.47;6.97;;;;;;;12.46;100.00;148215.03;5086135;28;20313;-48
2023/05/02 01:24:16;;;;;;;7.03;6.53;;;;;;;12.44;100.00;148209.97;5088465;28;20226;-47
2023/05/02 01:30:33;;;;;;;18.90;7.47;;;;;;;12.48;100.00;148218.81;5091407;28;20679;-48
2023/05/02 01:33:33;;;;;;;6.80;6.20;;;;;;;12.47;100.00;148216.28;5090721;28;20248;-53
2023/05/02 01:36:04;;;;;;;7.03;6.53;;;;;;;12.44;100.00;148209.97;5090404;28;20263;-48
2023/05/02 01:38:54;;;;;;;6.80;6.30;;;;;;;12.40;100.00;148198.69;5093134;28;20221;-48
2023/05/02 01:41:46;;;;;;;8.10;6.43;;;;;;;12.32;100.00;148181.03;5093180;28;20210;-47
2023/05/02 01:44:49;;;;;;;9.53;7.27;;;;;;;12.25;100.00;148162.16;5091130;28;20257;-48
2023/05/02 01:47:57;;;;;;;7.27;6.50;;;;;;;12.22;100.00;148154.59;5092889;28;20218;-52
2023/05/02 01:50:48;;;;;;;7.80;6.93;;;;;;;12.27;100.00;148168.44;5091887;28;20199;-48
2023/05/02 01:53:54;;;;;;;7.57;6.90;;;;;;;12.23;100.00;148158.38;5093238;28;20286;-52
2023/05/02 01:56:57;;;;;;;8.53;7.93;;;;;;;12.33;100.00;148183.53;5088978;28;20195;-53
2023/05/02 02:09:24;;;;;;;9.33;8.50;;;;;;;12.25;100.00;148163.41;5092894;28;20199;-47
2023/05/02 02:12:24;;;;;;;10.83;8.67;;;;;;;12.22;100.00;148155.84;5092701;28;20207;-47
2023/05/02 02:15:33;;;;;;;8.40;7.67;;;;;;;12.21;100.00;148152.06;5092930;28;20230;-47
2023/05/02 02:21:37;;;;;;;8.30;7.50;;;;;;;12.13;100.00;148131.94;5078658;28;20298;-53
2023/05/02 02:24:24;;;;;;;8.53;7.83;;;;;;;12.02;100.00;148105.50;5091097;28;20199;-52
2023/05/02 02:30:22;;;;;;;8.23;7.23;;;;;;;11.87;100.00;148068.97;5091739;28;20198;-53
2023/05/02 02:36:23;;;;;;;7.90;7.30;;;;;;;11.94;100.00;148086.63;5090843;28;20191;-52
2023/05/02 02:39:39;;;;;;;11.20;7.50;;;;;;;11.74;100.00;148035.00;5092282;28;20218;-52
2023/05/02 02:42:41;;;;;;;8.23;7.43;;;;;;;11.74;100.00;148035.00;5087840;28;20199;-53
2023/05/02 02:45:37;;;;;;;8.53;7.20;;;;;;;11.76;100.00;148040.03;5090209;28;20195;-48
2023/05/02 02:48:40;;;;;;;8.53;7.20;;;;;;;11.73;100.00;148033.72;5091841;28;20248;-48
2023/05/02 02:51:15;;;;;;;8.30;7.50;;;;;;;11.71;100.00;148027.41;5090328;28;20195;-53
2023/05/02 02:54:15;;;;;;;11.60;7.60;;;;;;;11.82;100.00;148056.41;5091757;28;20197;-47
2023/05/02 02:57:17;;;;;;;8.07;7.27;;;;;;;11.74;100.00;148035.00;5088770;28;20199;-53
2023/05/02 03:00:09;;;;;;;7.73;6.93;;;;;;;11.68;100.00;148019.84;5090214;28;20318;-48
2023/05/02 03:08:52;;;;;;;9.07;8.20;;;;;;;11.65;100.00;148014.81;5084839;28;20225;-52
2023/05/02 03:11:24;;;;;;;14.97;9.27;;;;;;;11.64;100.00;148012.28;5089639;28;20705;-52
2023/05/02 03:13:54;;;;;;;14.83;9.30;;;;;;;11.54;100.00;147985.88;5091293;28;20195;-50
2023/05/02 03:16:40;;;;;;;12.20;9.70;;;;;;;11.59;100.00;147999.72;5091400;28;20206;-48
2023/05/02 03:19:10;;;;;;;16.50;10.60;;;;;;;11.47;100.00;147969.53;5072289;28;20716;-48
2023/05/02 03:21:44;;;;;;;17.80;10.13;;;;;;;11.53;100.00;147984.63;5070806;28;20604;-53
2023/05/02 03:24:26;;;;;;;14.07;10.63;;;;;;;11.48;100.00;147972.06;5071434;28;20555;-52
2023/05/02 03:26:57;;;;;;;19.17;9.67;;;;;;;11.53;100.00;147984.63;5069059;28;20623;-53
2023/05/02 03:29:53;;;;;;;11.30;9.17;;;;;;;11.63;100.00;148009.78;5070794;28;20258;-52
2023/05/02 03:32:50;;;;;;;14.47;10.50;;;;;;;11.62;100.00;148006.03;5070967;28;20200;-50
2023/05/02 03:35:53;;;;;;;11.93;8.50;;;;;;;11.63;100.00;148008.50;5069590;28;20680;-48
2023/05/02 03:38:59;;;;;;;9.90;8.77;;;;;;;11.68;100.00;148021.13;5070734;28;20219;-49
2023/05/02 03:45:16;;;;;;;15.67;9.00;;;;;;;11.94;100.00;148085.38;5069839;28;20581;-49
2023/05/02 03:48:11;;;;;;;8.47;7.47;;;;;;;11.96;99.47;148090.41;5069867;28;20278;-48
2023/05/02 03:50:59;;;;;;;9.87;7.97;;;;;;;12.02;97.93;148105.50;5070267;28;20195;-48
2023/05/02 03:53:43;;;;;;;9.23;8.37;;;;;;;12.18;97.36;148145.81;5064552;28;20251;-49
2023/05/02 03:56:47;;;;;;;10.43;7.93;;;;;;;12.42;97.73;148203.69;5070150;28;20207;-48
2023/05/02 04:02:44;;;;;;;8.00;7.20;;;;;;;15.00;82.29;148846.63;5066467;28;20755;-48
2023/05/02 04:09:07;;;;;;;8.37;7.57;;;;;;;18.16;60.08;149632.44;5069121;28;20638;-47
2023/05/02 04:15:22;;;;;;;11.25;6.82;;;;;;;20.89;48.25;150316.09;5070334;28;20683;-48
2023/05/02 04:18:22;;;;;;;8.57;5.88;;;;;;;21.89;45.47;150564.59;5069917;28;20220;-49
2023/05/02 04:21:16;;;;;;;8.10;6.22;;;;;;;23.20;42.02;150893.19;5069564;28;20200;-53
2023/05/02 04:24:03;;;;;;;11.30;6.43;;;;;;;24.89;38.79;151317.34;5069703;28;20203;-52
2023/05/02 04:27:00;;;;;;;14.55;5.93;;;;;;;25.78;36.28;151538.56;5069846;28;20195;-53
2023/05/02 04:32:50;;;;;;;6.50;5.88;;;;;;;27.11;34.06;151874.34;5065831;28;20199;-48
2023/05/02 04:35:50;;;;;;;11.05;6.25;;;;;;;26.69;34.14;151768.75;5069418;28;20196;-53
2023/05/02 04:38:31;;;;;;;6.80;6.15;;;;;;;26.29;34.59;151667.03;5069362;28;20306;-49
2023/05/02 04:47:28;;;;;;;6.53;5.97;;;;;;;27.42;33.22;151950.72;5067512;28;20199;-50
2023/05/02 04:50:16;;;;;;;7.80;5.43;;;;;;;28.00;31.49;152097.06;5068886;28;20196;-53
2023/05/02 04:53:11;;;;;;;8.60;4.88;;;;;;;27.74;30.92;152030.94;5069379;28;20762;-52
2023/05/02 04:56:10;;;;;;;8.45;5.78;;;;;;;27.51;30.56;151972.34;5068440;28;20414;-53
2023/05/02 04:59:09;;;;;;;8.35;5.18;;;;;;;27.60;30.45;151995.28;5066681;28;20223;-53
2023/05/02 05:04:47;;;;;;;5.90;4.57;;;;;;;25.16;32.93;151384.75;5027826;28;20198;-52
2023/05/02 05:07:51;;;;;;;6.43;4.78;;;;;;;25.03;32.93;151351.72;5037419;28;20332;-53
2023/05/02 05:10:46;;;;;;;5.07;4.57;;;;;;;25.67;31.97;151511.84;5047341;28;20196;-50
2023/05/02 05:13:19;;;;;;;8.75;5.00;;;;;;;25.35;32.47;151431.75;5049301;28;20204;-47
2023/05/02 05:15:53;;;;;;;4.78;4.30;;;;;;;25.86;32.29;151560.16;5049030;28;20300;-48
2023/05/02 05:18:48;;;;;;;8.15;5.15;;;;;;;26.90;30.97;151819.59;5049068;28;20273;-48
2023/05/02 05:21:35;;;;;;;5.28;4.88;;;;;;;27.42;30.90;151952.00;5048560;28;20210;-50
2023/05/02 05:24:20;;;;;;;6.90;5.20;;;;;;;28.25;29.59;152158.22;5048625;28;20204;-49
2023/05/02 05:30:37;;;;;;;5.82;4.95;;;;;;;26.60;31.42;151745.84;5037122;28;20219;-50
2023/05/02 05:33:55;;;;;;;7.90;5.38;;;;;;;26.93;31.07;151827.31;5029306;28;20196;-50
2023/05/02 05:36:45;;;;;;;10.43;6.82;;;;;;;25.70;33.08;151519.50;5026890;28;20610;-49
2023/05/02 05:45:44;;;;;;;6.22;5.50;;;;;;;26.35;32.59;151682.25;5027990;28;20661;-53
2023/05/02 05:48:24;;;;;;;8.23;4.93;;;;;;;27.15;31.98;151883.28;5029260;28;20233;-52
2023/05/02 05:51:12;;;;;;;10.35;6.30;;;;;;;27.01;32.86;151848.91;5028663;28;20621;-52
2023/05/02 05:54:06;;;;;;;6.47;5.90;;;;;;;25.97;34.68;151588.13;5029112;28;20196;-48
2023/05/02 05:56:45;;;;;;;6.68;5.97;;;;;;;26.23;34.75;151651.69;5036756;28;20208;-48
2023/05/02 05:59:40;;;;;;;6.90;6.30;;;;;;;26.45;34.55;151707.69;5051124;28;20216;-50
2023/05/02 06:02:49;;;;;;;6.43;5.72;;;;;;;27.08;33.54;151865.47;5086959;28;20687;-49
2023/05/02 06:05:46;;;;;;;8.98;5.70;;;;;;;26.79;33.20;151791.63;5087801;28;20207;-49
2023/05/02 06:08:22;;;;;;;6.47;5.90;;;;;;;27.15;33.10;151883.28;5087907;28;20632;-49
2023/05/02 06:11:00;;;;;;;6.35;5.80;;;;;;;26.92;33.31;151824.69;5088778;28;20286;-49
2023/05/02 06:13:44;;;;;;;6.70;6.10;;;;;;;26.76;34.09;151785.25;5084117;28;20195;-48
2023/05/02 06:16:43;;;;;;;8.57;6.40;;;;;;;26.52;33.92;151724.25;5087644;28;20195;-49
2023/05/02 06:19:47;;;;;;;5.55;4.97;;;;;;;26.87;33.17;151813.22;5091311;28;20223;-53
2023/05/02 06:25:29;;;;;;;9.15;5.05;;;;;;;27.04;32.68;151855.28;5057532;28;20211;-53
2023/05/02 06:28:30;;;;;;;6.13;5.20;;;;;;;27.27;32.05;151913.81;5072141;28;20625;-53
2023/05/02 06:31:04;;;;;;;5.72;5.20;;;;;;;26.59;33.04;151743.31;5071084;28;20587;-53
2023/05/02 06:33:45;;;;;;;5.55;5.15;;;;;;;26.25;33.02;151656.78;5072210;28;20207;-55
2023/05/02 06:39:30;;;;;;;6.80;4.35;;;;;;;26.34;32.99;151679.72;5069016;28;20612;-50
2023/05/02 06:42:23;;;;;;;4.88;4.47;;;;;;;26.43;32.58;151701.31;5068891;28;20199;-57
2023/05/02 06:45:26;;;;;;;7.93;4.88;;;;;;;25.92;33.24;151575.44;5071914;28;20196;-51
2023/05/02 06:47:58;;;;;;;11.45;5.28;;;;;;;25.86;33.21;151560.16;5071958;28;20202;-53
2023/05/02 06:50:41;;;;;;;4.30;4.00;;;;;;;25.61;33.98;151496.63;5087450;28;20298;-53
2023/05/02 06:56:24;;;;;;;4.97;4.68;;;;;;;25.93;33.50;151577.97;5091289;28;20220;-49
2023/05/02 07:08:36;;;;;;;13.55;5.10;;;;;;;26.15;33.12;151632.63;5049392;28;20196;-53
2023/05/02 07:14:30;;;;;;;5.03;4.22;;;;;;;26.12;33.24;151625.00;5050659;28;20215;-53
2023/05/02 07:20:43;;;;;;;4.25;4.00;;;;;;;27.32;29.42;151925.22;5049231;28;20228;-52
2023/05/02 07:23:31;;;;;;;4.47;3.67;;;;;;;27.70;29.47;152020.72;5049693;28;20204;-53
2023/05/02 07:26:00;;;;;;;5.70;3.92;;;;;;;28.06;28.94;152112.38;5050876;28;20200;-52
2023/05/02 07:28:27;;;;;;;3.72;3.50;;;;;;;28.09;28.30;152118.75;5051100;28;20286;-53
2023/05/02 07:34:33;;;;;;;3.72;3.53;;;;;;;27.77;28.96;152039.81;5050192;28;20258;-53
2023/05/02 07:37:33;;;;;;;;;;;;;;;;;;;;;
2023/05/02 07:40:29;;;;;;;4.63;4.07;;;;;;;28.63;28.34;152255.00;5050809;28;20706;-53
2023/05/02 07:43:10;;;;;;;6.35;4.03;;;;;;;27.76;28.99;152037.31;5051215;28;20721;-53
2023/05/02 07:49:29;;;;;;;3.92;3.63;;;;;;;29.15;27.96;152386.22;5029852;28;20735;-54
2023/05/02 07:54:53;;;;;;;3.97;3.67;;;;;;;29.75;26.53;152535.34;5026643;28;20206;-49
2023/05/02 07:57:34;;;;;;;4.72;3.50;;;;;;;29.58;25.84;152494.53;5029879;28;20221;-50
2023/05/02 08:00:23;;;;;;;11.35;4.68;;;;;;;30.20;24.93;152648.81;5040803;28;20747;-49
2023/05/02 08:03:13;;;;;;;3.75;2.85;;;;;;;28.78;25.06;152292.00;5087524;28;20239;-49
2023/05/02 08:06:11;;;;;;;3.53;3.33;;;;;;;28.85;25.84;152309.81;5089326;28;20215;-50
2023/05/02 08:08:50;;;;;;;6.03;2.95;;;;;;;28.24;25.89;152155.69;5089716;28;20222;-48
2023/05/02 08:17:41;;;;;;;3.20;2.30;;;;;;;26.55;27.13;151731.84;5087003;28;20199;-50
2023/05/02 08:23:22;;;;;;;3.80;2.42;;;;;;;26.13;27.49;151627.53;5062508;28;20223;-49
2023/05/02 08:26:11;;;;;;;3.05;2.22;;;;;;;26.35;27.28;151682.25;5089754;28;20666;-49
2023/05/02 08:38:17;;;;;;;2.42;2.33;;;;;;;25.10;27.93;151369.50;5088972;28;20202;-49
2023/05/02 08:41:12;;;;;;;5.18;2.55;;;;;;;25.45;27.10;151455.91;5087828;28;20199;-53
2023/05/02 08:44:08;;;;;;;6.00;2.55;;;;;;;25.05;27.56;151355.53;5082579;28;20195;-54
2023/05/02 08:47:01;;;;;;;4.15;2.15;;;;;;;24.83;27.94;151302.09;5089058;28;20203;-53
2023/05/02 08:50:13;;;;;;;3.97;2.20;;;;;;;24.41;28.74;151195.41;5089277;28;20226;-47
2023/05/02 08:53:14;;;;;;;;;;;;;;;;;;;;;
2023/05/02 09:03:25;;;;;;;3.90;2.00;;;;;;;24.89;28.27;151316.09;5087771;28;20285;-49
2023/05/02 09:06:19;;;;;;;5.03;2.33;;;;;;;25.18;28.83;151389.81;5089618;28;20191;-47
2023/05/02 09:12:24;;;;;;;2.42;2.30;;;;;;;25.20;27.95;151393.63;5082523;28;20605;-53
2023/05/02 09:15:37;;;;;;;2.70;2.40;;;;;;;24.90;28.47;151319.91;5089554;28;20199;-54
2023/05/02 09:22:01;;;;;;;;;;;;;;;;;;;;;
2023/05/02 09:25:25;;;;;;;;;;;;;;;;;;;;;
2023/05/02 09:28:40;;;;;;;2.58;1.83;;;;;;;24.68;27.51;151264.00;5085720;28;20203;-49
2023/05/02 09:35:24;;;;;;;5.28;2.38;;;;;;;24.89;27.01;151316.09;5088864;28;20278;-48
2023/05/02 09:41:15;;;;;;;2.63;2.00;;;;;;;24.47;27.62;151210.66;5085355;28;20270;-49
2023/05/02 09:44:12;;;;;;;6.20;2.75;;;;;;;24.45;28.06;151205.56;5088416;28;20209;-49
2023/05/02 09:47:18;;;;;;;2.45;2.25;;;;;;;24.36;28.36;151182.72;5085114;28;20188;-50
2023/05/02 09:50:00;;;;;;;7.25;2.90;;;;;;;24.39;28.74;151190.31;5086870;28;20880;-49
2023/05/02 09:58:24;;;;;;;9.63;2.95;;;;;;;24.80;28.12;151294.50;5091292;28;20204;-48
2023/05/02 10:01:13;;;;;;;7.75;2.92;;;;;;;24.97;27.56;151336.44;5086783;28;20256;-48
2023/05/02 10:04:20;;;;;;;4.00;2.10;;;;;;;24.47;29.14;151210.66;5082647;28;20916;-52
2023/05/02 10:07:05;;;;;;;5.40;1.95;;;;;;;24.30;29.02;151168.75;5093004;28;20639;-49
2023/05/02 10:10:11;;;;;;;3.70;1.92;;;;;;;24.23;28.90;151150.97;5092447;28;20238;-53
2023/05/02 10:13:26;;;;;;;8.27;2.30;;;;;;;24.53;27.86;151227.16;5091798;28;20429;-52
2023/05/02 10:16:23;;;;;;;2.00;1.85;;;;;;;23.66;29.56;151008.72;5088428;28;20286;-52
2023/05/02 10:19:27;;;;;;;2.78;2.03;;;;;;;23.39;29.91;150941.41;5092400;28;20199;-52
2023/05/02 10:22:32;;;;;;;2.78;2.00;;;;;;;22.78;30.89;150787.88;5092672;28;20206;-48
2023/05/02 10:25:29;;;;;;;6.78;2.50;;;;;;;22.78;30.12;150787.88;5092527;28;20187;-49
2023/05/02 10:28:29;;;;;;;3.25;2.10;;;;;;;22.92;30.81;150823.38;5091484;28;20664;-53
2023/05/02 10:31:00;;;;;;;8.02;2.17;;;;;;;22.85;30.27;150805.63;5091933;28;20191;-52
2023/05/02 10:33:31;;;;;;;2.08;1.95;;;;;;;22.57;30.02;150734.56;5088602;28;20210;-55
2023/05/02 10:36:26;;;;;;;5.38;1.80;;;;;;;22.50;30.67;150716.78;5091425;28;20248;-53
2023/05/02 10:42:16;;;;;;;7.45;2.13;;;;;;;22.14;32.07;150626.72;5090894;28;20206;-48
2023/05/02 10:45:10;;;;;;;5.82;1.77;;;;;;;22.15;31.52;150629.28;5090579;28;20587;-49
2023/05/02 10:47:49;;;;;;;9.52;2.35;;;;;;;22.17;31.07;150635.63;5090600;28;20577;-49
2023/05/02 10:51:02;;;;;;;9.07;2.20;;;;;;;22.14;30.60;150626.72;5089364;28;20195;-52
2023/05/02 10:53:32;;;;;;;3.28;1.70;;;;;;;22.02;30.79;150597.56;5090010;28;20200;-54
2023/05/02 10:56:20;;;;;;;4.13;2.10;;;;;;;22.06;31.18;150609.00;5090968;28;20195;-53
2023/05/02 10:59:04;;;;;;;3.53;1.50;;;;;;;22.17;30.73;150635.63;5090062;28;20226;-54
2023/05/02 11:01:41;;;;;;;3.80;1.60;;;;;;;22.15;31.05;150630.53;5086543;28;20306;-53
2023/05/02 11:04:12;;;;;;;12.38;1.95;;;;;;;22.26;31.17;150658.44;5088753;28;20190;-53
2023/05/02 11:07:32;;;;;;;3.97;1.80;;;;;;;22.49;30.51;150715.50;5090494;28;20282;-52
2023/05/02 11:10:28;;;;;;;6.50;2.13;;;;;;;22.34;29.74;150677.50;5006058;28;20202;-49
2023/05/02 11:13:00;;;;;;;2.45;1.85;;;;;;;22.32;29.33;150673.69;5006322;28;20736;-51
2023/05/02 11:16:12;;;;;;;2.20;1.80;;;;;;;22.12;30.09;150622.97;5066444;28;20195;-48
2023/05/02 11:19:06;;;;;;;2.70;1.40;;;;;;;22.20;29.90;150643.25;4996526;28;20713;-48
2023/05/02 11:21:41;;;;;;;3.08;1.90;;;;;;;22.36;30.01;150683.78;4999025;28;20225;-49
2023/05/02 11:24:39;;;;;;;3.10;1.77;;;;;;;22.58;29.94;150737.06;5068203;28;20686;-49
2023/05/02 11:27:44;;;;;;;2.58;1.92;;;;;;;22.70;29.95;150768.78;5089768;28;20226;-49
2023/05/02 11:30:47;;;;;;;3.05;1.90;;;;;;;22.88;29.29;150813.25;5086852;28;20272;-49
2023/05/02 11:33:20;;;;;;;1.70;1.60;;;;;;;22.63;29.14;150749.75;5087702;28;20199;-49
2023/05/02 11:35:55;;;;;;;2.65;1.77;;;;;;;22.29;29.39;150666.06;5089962;28;20191;-54
2023/05/02 11:38:38;;;;;;;1.52;1.45;;;;;;;22.44;29.68;150704.13;5089858;28;20217;-53
2023/05/02 11:41:20;;;;;;;3.60;1.88;;;;;;;22.50;29.48;150718.06;5089035;28;20210;-54
2023/05/02 11:44:27;;;;;;;1.80;1.58;;;;;;;22.55;29.71;150730.75;5089473;28;20234;-53
2023/05/02 11:47:21;;;;;;;2.00;1.40;;;;;;;22.71;29.49;150770.06;5089539;28;20591;-50
2023/05/02 11:50:00;;;;;;;2.90;1.73;;;;;;;22.75;29.40;150781.53;5086599;28;20260;-51
2023/05/02 11:53:00;;;;;;;2.85;1.77;;;;;;;22.85;29.58;150805.63;5089880;28;20227;-52
2023/05/02 11:55:44;;;;;;;1.85;1.75;;;;;;;23.07;29.43;150860.19;5089703;28;20191;-52
2023/05/02 11:58:31;;;;;;;5.03;2.10;;;;;;;23.12;29.67;150874.16;5088458;28;20207;-48
2023/05/02 12:01:20;;;;;;;5.78;1.65;;;;;;;22.98;29.94;150838.63;5089363;28;20680;-53
2023/05/02 12:04:07;;;;;;;1.48;1.40;;;;;;;22.86;29.92;150806.91;5089261;28;20203;-52
2023/05/02 12:07:04;;;;;;;3.22;2.15;;;;;;;22.84;30.52;150801.81;5089083;28;20244;-53
2023/05/02 12:09:36;;;;;;;5.38;1.67;;;;;;;22.99;30.82;150841.16;5087461;28;20195;-48
2023/05/02 12:12:20;;;;;;;4.70;1.98;;;;;;;23.17;30.23;150886.81;5085728;28;20195;-47
2023/05/02 12:15:16;;;;;;;2.65;1.73;;;;;;;23.01;29.63;150846.25;5085727;28;20241;-48
2023/05/02 12:17:51;;;;;;;2.22;2.10;;;;;;;23.04;29.73;150852.56;5089169;28;20195;-48
2023/05/02 12:21:10;;;;;;;;;;;;;;;;;;;;;
2023/05/02 12:23:51;;;;;;;2.67;2.20;;;;;;;23.04;30.29;150853.84;5079135;28;20698;-53
2023/05/02 12:26:42;;;;;;;3.85;1.92;;;;;;;22.94;30.66;150828.47;5087654;28;20268;-53
2023/05/02 12:32:41;;;;;;;2.28;1.85;;;;;;;22.86;30.06;150806.91;5086626;28;20555;-53
2023/05/02 12:35:55;;;;;;;9.85;2.20;;;;;;;22.83;30.27;150799.28;5087876;28;20282;-52
2023/05/02 12:38:44;;;;;;;2.92;1.75;;;;;;;22.70;30.38;150767.50;5067543;28;20218;-49
2023/05/02 12:41:50;;;;;;;3.90;2.03;;;;;;;22.74;29.78;150777.69;5067518;28;20224;-48
2023/05/02 12:44:53;;;;;;;4.53;1.80;;;;;;;22.79;30.43;150790.44;5088471;28;20191;-47
2023/05/02 12:57:03;;;;;;;5.25;1.95;;;;;;;23.09;29.67;150865.28;5069471;28;20205;-52
2023/05/02 13:00:08;;;;;;;1.63;1.52;;;;;;;23.15;30.33;150881.75;5064767;28;20199;-50
2023/05/02 13:03:02;;;;;;;5.10;1.95;;;;;;;23.10;30.21;150869.09;5069410;28;20593;-52
2023/05/02 13:06:22;;;;;;;4.43;1.38;;;;;;;23.01;29.65;150846.25;5068721;28;20196;-51
2023/05/02 13:09:09;;;;;;;3.35;1.50;;;;;;;22.87;29.89;150810.72;5069252;28;20218;-52
2023/05/02 13:21:13;;;;;;;8.90;1.80;;;;;;;22.60;30.41;150743.41;5068171;28;20223;-49
2023/05/02 13:27:32;;;;;;;3.67;2.00;;;;;;;22.71;30.46;150771.31;5073370;28;20200;-49
2023/05/02 13:30:18;;;;;;;2.85;1.73;;;;;;;22.76;30.31;150782.81;5073327;28;20200;-48
2023/05/02 13:33:16;;;;;;;;;;;;;;;;;;;;;
2023/05/02 13:38:50;;;;;;;3.88;1.73;;;;;;;22.67;29.98;150761.19;5091431;28;20695;-49
2023/05/02 13:41:45;;;;;;;2.15;1.25;;;;;;;22.56;29.87;150732.03;5089704;28;20226;-48
2023/05/02 13:44:43;;;;;;;1.50;1.40;;;;;;;22.55;29.68;150730.75;5093048;28;20199;-49
2023/05/02 13:59:16;;;;;;;5.65;1.85;;;;;;;22.46;30.98;150707.88;5055094;28;20219;-47
2023/05/02 14:02:32;;;;;;;2.15;1.33;;;;;;;22.45;30.58;150705.41;5071443;28;20289;-48
2023/05/02 14:08:40;;;;;;;1.73;1.60;;;;;;;22.35;30.10;150681.25;5068254;28;20593;-47
2023/05/02 14:14:47;;;;;;;3.08;1.70;;;;;;;22.40;30.69;150693.97;5070129;28;20196;-46
2023/05/02 14:17:18;;;;;;;11.60;2.63;;;;;;;22.36;31.24;150683.78;5081097;28;20195;-48
2023/05/02 14:23:07;;;;;;;5.03;2.10;;;;;;;22.45;30.73;150705.41;5091053;28;20256;-48
2023/05/02 14:25:56;;;;;;;3.65;1.98;;;;;;;22.34;30.65;150678.75;5091513;28;20249;-47
2023/05/02 14:28:25;;;;;;;1.77;1.67;;;;;;;22.30;30.99;150668.59;5091616;28;20453;-48
2023/05/02 14:31:02;;;;;;;3.53;1.55;;;;;;;22.38;31.00;150688.88;5092362;28;20227;-48
2023/05/02 14:34:00;;;;;;;2.92;1.67;;;;;;;22.22;31.21;150648.31;5092352;28;20260;-52
2023/05/02 14:37:01;;;;;;;;;;;;;;;;;;;;;
2023/05/02 14:39:53;;;;;;;4.45;1.73;;;;;;;22.29;32.00;150666.06;5090068;28;20195;-48
2023/05/02 14:42:37;;;;;;;2.17;1.70;;;;;;;22.32;32.05;150673.69;5092037;28;20226;-50
2023/05/02 14:45:33;;;;;;;2.60;1.70;;;;;;;22.27;32.08;150660.97;5086361;28;20710;-50
2023/05/02 14:48:50;;;;;;;3.67;2.10;;;;;;;22.29;32.29;150666.06;5092122;28;20636;-47
2023/05/02 14:51:46;;;;;;;2.40;1.83;;;;;;;22.20;32.42;150643.25;5091866;28;20188;-49
2023/05/02 14:54:59;;;;;;;2.03;1.80;;;;;;;22.16;32.72;150631.81;5090719;28;20196;-50
2023/05/02 14:57:48;;;;;;;2.45;1.70;;;;;;;22.08;33.22;150612.81;5088334;28;20199;-51
2023/05/02 15:00:42;;;;;;;4.10;2.05;;;;;;;22.11;33.20;150620.44;5085956;28;20218;-52
2023/05/02 15:03:50;;;;;;;8.00;1.75;;;;;;;22.04;32.77;150602.63;5089937;28;20195;-52
2023/05/02 15:13:19;;;;;;;7.32;1.83;;;;;;;22.06;32.85;150609.00;5107249;28;20788;-52
2023/05/02 15:16:18;;;;;;;8.07;2.40;;;;;;;22.08;33.23;150614.06;5105946;28;20199;-49
2023/05/02 15:19:36;;;;;;;2.03;1.83;;;;;;;22.04;33.21;150603.91;5104460;28;20195;-48
2023/05/02 15:22:28;;;;;;;1.92;1.83;;;;;;;22.04;32.96;150602.63;5102210;28;20226;-50
2023/05/02 15:37:48;;;;;;;2.85;1.60;;;;;;;22.08;33.37;150612.81;5102663;28;20194;-52
2023/05/02 15:40:48;;;;;;;;;;;;;;;;;;;;;
2023/05/02 15:44:08;;;;;;;3.78;2.08;;;;;;;22.03;33.48;150600.09;5098252;28;20210;-48
2023/05/02 15:47:23;;;;;;;3.33;2.25;;;;;;;21.92;33.62;150573.44;5104682;28;20194;-52
2023/05/02 15:56:09;;;;;;;2.20;2.00;;;;;;;21.77;33.30;150535.44;5105641;28;20674;-49
2023/05/02 16:27:05;;;;;;;3.67;2.90;;;;;;;21.08;34.89;150361.72;5091058;28;20211;-48
2023/05/02 16:32:53;;;;;;;4.47;3.00;;;;;;;20.91;35.02;150321.16;5090503;28;20195;-49
2023/05/02 16:35:48;;;;;;;2.80;2.60;;;;;;;20.84;35.17;150303.44;5090337;28;20195;-47
2023/05/02 16:42:12;;;;;;;3.92;2.13;;;;;;;20.71;35.42;150270.50;5088409;28;20718;-47
2023/05/02 16:45:05;;;;;;;2.22;1.92;;;;;;;20.60;35.30;150243.91;5091439;28;20634;-48
2023/05/02 16:47:58;;;;;;;4.68;2.10;;;;;;;20.55;35.53;150229.94;5090727;28;20640;-49
2023/05/02 16:50:52;;;;;;;1.98;1.88;;;;;;;20.51;35.83;150219.84;5091938;28;20205;-49
2023/05/02 16:54:10;;;;;;;5.70;2.25;;;;;;;20.40;36.06;150193.22;5090623;28;20300;-49
2023/05/02 17:03:18;;;;;;;3.10;1.88;;;;;;;20.25;36.69;150155.19;5090225;28;20230;-49
2023/05/02 17:09:37;;;;;;;3.35;1.88;;;;;;;20.02;37.09;150096.94;5084503;28;20231;-52
2023/05/02 17:12:54;;;;;;;2.20;2.00;;;;;;;19.95;37.28;150080.47;5092003;28;20200;-51
2023/05/02 17:15:36;;;;;;;2.35;1.65;;;;;;;19.85;37.37;150056.44;5089450;28;20701;-53
2023/05/02 17:18:10;;;;;;;2.10;2.00;;;;;;;19.79;37.67;150039.94;5087022;28;20328;-54
2023/05/02 17:20:48;;;;;;;2.15;1.92;;;;;;;19.75;37.79;150029.84;5075059;28;20219;-51
2023/05/02 17:23:28;;;;;;;2.40;2.20;;;;;;;19.68;37.88;150012.09;5090060;28;20302;-51
2023/05/02 17:26:13;;;;;;;2.97;2.25;;;;;;;19.63;37.87;149999.47;5090316;28;20634;-52
2023/05/02 17:28:56;;;;;;;2.05;1.88;;;;;;;19.57;38.08;149986.78;5089041;28;20697;-51
2023/05/02 17:31:39;;;;;;;3.90;2.15;;;;;;;19.52;37.85;149972.88;5089688;28;20219;-53
2023/05/02 17:34:28;;;;;;;4.72;2.17;;;;;;;19.48;37.90;149962.69;5088584;28;20635;-49
2023/05/02 17:37:06;;;;;;;2.92;2.60;;;;;;;19.45;38.05;149956.34;5090289;28;22004;-52
2023/05/02 17:39:38;;;;;;;2.58;2.38;;;;;;;19.43;38.25;149951.28;5086591;28;20215;-52
2023/05/02 17:42:25;;;;;;;3.20;2.90;;;;;;;19.38;38.36;149937.38;5089803;28;20314;-53
2023/05/02 17:45:13;;;;;;;4.32;2.78;;;;;;;19.32;38.43;149922.16;5089694;28;20609;-52
2023/05/02 17:48:20;;;;;;;2.22;2.13;;;;;;;19.32;38.67;149922.16;5089318;28;20223;-52
2023/05/02 17:51:02;;;;;;;5.07;3.50;;;;;;;19.33;38.89;149924.69;5088403;28;20914;-51
2023/05/02 17:53:46;;;;;;;4.28;2.78;;;;;;;19.24;39.43;149903.19;5086337;28;20230;-52
2023/05/02 17:56:33;;;;;;;4.28;2.83;;;;;;;19.21;38.95;149895.59;5089089;28;20219;-52
2023/05/02 17:59:13;;;;;;;7.47;2.97;;;;;;;19.19;39.10;149890.53;5088925;28;20219;-52
2023/05/02 18:01:58;;;;;;;3.03;2.70;;;;;;;19.15;38.95;149880.44;5085247;28;20446;-52
2023/05/02 18:04:29;;;;;;;5.40;2.75;;;;;;;19.14;39.11;149879.16;5072588;28;20436;-52
2023/05/02 18:07:10;;;;;;;6.32;3.65;;;;;;;19.13;39.09;149875.34;5079976;28;20219;-52
2023/05/02 18:09:42;;;;;;;3.70;3.33;;;;;;;19.09;39.07;149865.22;5028953;28;20233;-52
2023/05/02 18:12:14;;;;;;;5.63;2.60;;;;;;;19.02;39.57;149847.53;5028315;28;20616;-50
2023/05/02 18:14:47;;;;;;;4.47;2.97;;;;;;;18.97;39.64;149834.84;5029581;28;20670;-49